sensor_id;sensor_type;location;lat;lon;timestamp;pressure;altitude;pressure_sealevel;temperature;humidity
9672;BME280;4874;43.568;27.824;2022-07-24T00:00:24;98920.53;;;23.28;100.00
9672;BME280;4874;43.568;27.824;2022-07-24T00:02:51;98896.44;;;23.56;100.00
9672;BME280;4874;43.568;27.824;2022-07-24T00:05:18;98928.53;;;23.41;100.00
9672;BME280;4874;43.568;27.824;2022-07-24T00:07:44;98926.84;;;23.22;100.00
9672;BME280;4874;43.568;27.824;2022-07-24T00:10:11;98927.31;;;23.85;100.00
9672;BME280;4874;43.568;27.824;2022-07-24T00:12:38;98914.16;;;23.70;100.00
9672;BME280;4874;43.568;27.824;2022-07-24T00:15:07;98912.19;;;24.07;100.00
9672;BME280;4874;43.568;27.824;2022-07-24T00:17:34;98910.91;;;24.09;100.00
9672;BME280;4874;43.568;27.824;2022-07-24T00:20:00;98917.41;;;23.90;100.00
9672;BME280;4874;43.568;27.824;2022-07-24T00:22:27;98914.78;;;23.72;100.00
9672;BME280;4874;43.568;27.824;2022-07-24T00:24:54;98916.09;;;24.11;100.00
9672;BME280;4874;43.568;27.824;2022-07-24T00:27:20;98921.72;;;23.98;100.00
9672;BME280;4874;43.568;27.824;2022-07-24T00:29:47;98918.28;;;24.32;100.00
9672;BME280;4874;43.568;27.824;2022-07-24T00:32:14;98897.72;;;24.13;100.00
9672;BME280;4874;43.568;27.824;2022-07-24T00:34:41;98907.13;;;24.10;100.00
9672;BME280;4874;43.568;27.824;2022-07-24T00:37:08;98900.97;;;23.44;100.00
9672;BME280;4874;43.568;27.824;2022-07-24T00:39:34;98891.00;;;23.86;100.00
9672;BME280;4874;43.568;27.824;2022-07-24T00:42:01;98899.34;;;24.14;100.00
9672;BME280;4874;43.568;27.824;2022-07-24T00:44:28;98875.19;;;24.12;100.00
9672;BME280;4874;43.568;27.824;2022-07-24T00:46:55;98889.94;;;24.28;100.00
9672;BME280;4874;43.568;27.824;2022-07-24T00:49:21;98900.09;;;24.21;100.00
9672;BME280;4874;43.568;27.824;2022-07-24T00:51:52;98893.75;;;24.50;100.00
9672;BME280;4874;43.568;27.824;2022-07-24T00:54:20;98886.56;;;24.44;100.00
9672;BME280;4874;43.568;27.824;2022-07-24T00:56:49;98891.50;;;24.59;100.00
9672;BME280;4874;43.568;27.824;2022-07-24T00:59:16;98890.50;;;24.71;100.00
9672;BME280;4874;43.568;27.824;2022-07-24T01:01:46;98885.50;;;24.68;100.00
9672;BME280;4874;43.568;27.824;2022-07-24T01:04:13;98891.03;;;24.27;100.00
9672;BME280;4874;43.568;27.824;2022-07-24T01:06:44;98891.78;;;24.04;100.00
9672;BME280;4874;43.568;27.824;2022-07-24T01:09:10;98882.16;;;23.90;100.00
9672;BME280;4874;43.568;27.824;2022-07-24T01:11:38;98888.50;;;23.84;100.00
9672;BME280;4874;43.568;27.824;2022-07-24T01:14:05;98883.28;;;23.71;100.00
9672;BME280;4874;43.568;27.824;2022-07-24T01:16:34;98887.88;;;23.71;100.00
9672;BME280;4874;43.568;27.824;2022-07-24T01:19:02;98889.16;;;23.68;100.00
9672;BME280;4874;43.568;27.824;2022-07-24T01:21:29;98888.69;;;23.71;100.00
9672;BME280;4874;43.568;27.824;2022-07-24T01:23:56;98887.47;;;24.15;100.00
9672;BME280;4874;43.568;27.824;2022-07-24T01:26:23;98883.13;;;23.96;100.00
9672;BME280;4874;43.568;27.824;2022-07-24T01:28:49;98880.84;;;23.81;100.00
9672;BME280;4874;43.568;27.824;2022-07-24T01:31:16;98878.47;;;24.03;100.00
9672;BME280;4874;43.568;27.824;2022-07-24T01:33:43;98875.25;;;23.94;100.00
9672;BME280;4874;43.568;27.824;2022-07-24T01:36:10;98878.59;;;24.08;100.00
9672;BME280;4874;43.568;27.824;2022-07-24T01:38:36;98873.63;;;23.75;100.00
9672;BME280;4874;43.568;27.824;2022-07-24T01:41:03;98877.75;;;23.78;100.00
9672;BME280;4874;43.568;27.824;2022-07-24T01:43:30;98871.09;;;23.62;100.00
9672;BME280;4874;43.568;27.824;2022-07-24T01:45:57;98860.56;;;23.72;100.00
9672;BME280;4874;43.568;27.824;2022-07-24T01:48:24;98857.63;;;24.15;100.00
9672;BME280;4874;43.568;27.824;2022-07-24T01:50:51;98851.84;;;24.23;100.00
9672;BME280;4874;43.568;27.824;2022-07-24T01:53:17;98850.69;;;24.30;100.00
9672;BME280;4874;43.568;27.824;2022-07-24T01:55:44;98860.00;;;24.34;100.00
9672;BME280;4874;43.568;27.824;2022-07-24T01:58:11;98857.56;;;24.03;100.00
9672;BME280;4874;43.568;27.824;2022-07-24T02:00:38;98859.25;;;24.04;100.00
9672;BME280;4874;43.568;27.824;2022-07-24T02:03:04;98849.25;;;23.75;100.00
9672;BME280;4874;43.568;27.824;2022-07-24T02:05:31;98849.28;;;23.57;100.00
9672;BME280;4874;43.568;27.824;2022-07-24T02:07:59;98845.41;;;23.53;100.00
9672;BME280;4874;43.568;27.824;2022-07-24T02:10:27;98848.66;;;23.85;100.00
9672;BME280;4874;43.568;27.824;2022-07-24T02:12:55;98842.75;;;23.76;100.00
9672;BME280;4874;43.568;27.824;2022-07-24T02:15:24;98846.81;;;23.97;100.00
9672;BME280;4874;43.568;27.824;2022-07-24T02:17:54;98845.56;;;23.70;100.00
9672;BME280;4874;43.568;27.824;2022-07-24T02:20:21;98843.31;;;23.67;100.00
9672;BME280;4874;43.568;27.824;2022-07-24T02:22:48;98822.94;;;23.76;100.00
9672;BME280;4874;43.568;27.824;2022-07-24T02:25:15;98827.22;;;23.83;100.00
9672;BME280;4874;43.568;27.824;2022-07-24T02:27:42;98815.63;;;23.76;100.00
9672;BME280;4874;43.568;27.824;2022-07-24T02:30:12;98835.41;;;23.36;100.00
9672;BME280;4874;43.568;27.824;2022-07-24T02:32:39;98837.94;;;23.78;100.00
9672;BME280;4874;43.568;27.824;2022-07-24T02:35:07;98837.53;;;23.63;100.00
9672;BME280;4874;43.568;27.824;2022-07-24T02:37:39;98833.69;;;24.23;100.00
9672;BME280;4874;43.568;27.824;2022-07-24T02:40:08;98836.41;;;23.82;100.00
9672;BME280;4874;43.568;27.824;2022-07-24T02:42:36;98823.59;;;23.89;100.00
9672;BME280;4874;43.568;27.824;2022-07-24T02:45:04;98797.72;;;23.75;100.00
9672;BME280;4874;43.568;27.824;2022-07-24T02:47:31;98835.00;;;23.91;100.00
9672;BME280;4874;43.568;27.824;2022-07-24T02:49:58;98825.19;;;24.31;100.00
9672;BME280;4874;43.568;27.824;2022-07-24T02:52:24;98826.94;;;24.37;100.00
9672;BME280;4874;43.568;27.824;2022-07-24T02:54:51;98827.97;;;24.02;100.00
9672;BME280;4874;43.568;27.824;2022-07-24T02:57:19;98826.94;;;24.26;100.00
9672;BME280;4874;43.568;27.824;2022-07-24T02:59:46;98804.53;;;24.07;100.00
9672;BME280;4874;43.568;27.824;2022-07-24T03:02:16;98823.09;;;23.81;100.00
9672;BME280;4874;43.568;27.824;2022-07-24T03:04:43;98827.97;;;23.61;100.00
9672;BME280;4874;43.568;27.824;2022-07-24T03:07:10;98843.94;;;23.03;100.00
9672;BME280;4874;43.568;27.824;2022-07-24T03:09:37;98842.34;;;23.13;100.00
9672;BME280;4874;43.568;27.824;2022-07-24T03:12:04;98809.78;;;22.84;100.00
9672;BME280;4874;43.568;27.824;2022-07-24T03:14:31;98841.19;;;23.21;100.00
9672;BME280;4874;43.568;27.824;2022-07-24T03:16:57;98831.00;;;22.87;100.00
9672;BME280;4874;43.568;27.824;2022-07-24T03:19:24;98840.47;;;23.32;100.00
9672;BME280;4874;43.568;27.824;2022-07-24T03:21:51;98830.59;;;23.19;100.00
9672;BME280;4874;43.568;27.824;2022-07-24T03:24:18;98833.03;;;23.57;100.00
9672;BME280;4874;43.568;27.824;2022-07-24T03:26:44;98827.16;;;23.60;100.00
9672;BME280;4874;43.568;27.824;2022-07-24T03:29:11;98812.81;;;23.71;100.00
9672;BME280;4874;43.568;27.824;2022-07-24T03:31:38;98826.84;;;23.80;100.00
9672;BME280;4874;43.568;27.824;2022-07-24T03:34:04;98833.72;;;23.53;100.00
9672;BME280;4874;43.568;27.824;2022-07-24T03:36:32;98825.09;;;23.85;100.00
9672;BME280;4874;43.568;27.824;2022-07-24T03:38:59;98831.41;;;23.68;100.00
9672;BME280;4874;43.568;27.824;2022-07-24T03:41:26;98832.03;;;23.81;100.00
9672;BME280;4874;43.568;27.824;2022-07-24T03:43:53;98812.66;;;23.55;100.00
9672;BME280;4874;43.568;27.824;2022-07-24T03:46:21;98828.66;;;23.86;100.00
9672;BME280;4874;43.568;27.824;2022-07-24T03:48:48;98827.78;;;23.74;100.00
9672;BME280;4874;43.568;27.824;2022-07-24T03:51:15;98803.38;;;23.33;100.00
9672;BME280;4874;43.568;27.824;2022-07-24T03:53:41;98833.31;;;23.38;100.00
9672;BME280;4874;43.568;27.824;2022-07-24T03:56:09;98806.31;;;23.31;100.00
9672;BME280;4874;43.568;27.824;2022-07-24T03:58:36;98837.69;;;23.50;100.00
9672;BME280;4874;43.568;27.824;2022-07-24T04:01:05;98827.09;;;23.78;100.00
9672;BME280;4874;43.568;27.824;2022-07-24T04:03:32;98829.16;;;23.65;100.00
9672;BME280;4874;43.568;27.824;2022-07-24T04:06:04;98836.78;;;23.86;100.00
9672;BME280;4874;43.568;27.824;2022-07-24T04:08:32;98826.19;;;23.96;100.00
9672;BME280;4874;43.568;27.824;2022-07-24T04:10:59;98823.16;;;24.04;100.00
9672;BME280;4874;43.568;27.824;2022-07-24T04:13:27;98821.53;;;24.49;100.00
9672;BME280;4874;43.568;27.824;2022-07-24T04:15:55;98826.63;;;24.69;100.00
9672;BME280;4874;43.568;27.824;2022-07-24T04:18:23;98823.59;;;25.05;100.00
9672;BME280;4874;43.568;27.824;2022-07-24T04:20:50;98833.00;;;25.25;100.00
9672;BME280;4874;43.568;27.824;2022-07-24T04:23:17;98824.94;;;25.30;100.00
9672;BME280;4874;43.568;27.824;2022-07-24T04:25:45;98827.75;;;25.47;100.00
9672;BME280;4874;43.568;27.824;2022-07-24T04:28:12;98827.00;;;25.51;100.00
9672;BME280;4874;43.568;27.824;2022-07-24T04:30:39;98806.88;;;25.24;100.00
9672;BME280;4874;43.568;27.824;2022-07-24T04:33:06;98823.69;;;25.78;100.00
9672;BME280;4874;43.568;27.824;2022-07-24T04:35:33;98823.84;;;25.43;95.59
9672;BME280;4874;43.568;27.824;2022-07-24T04:37:59;98824.13;;;25.58;94.06
9672;BME280;4874;43.568;27.824;2022-07-24T04:40:26;98819.59;;;25.47;93.12
9672;BME280;4874;43.568;27.824;2022-07-24T04:42:53;98831.03;;;25.77;90.30
9672;BME280;4874;43.568;27.824;2022-07-24T04:45:20;98834.78;;;25.60;89.32
9672;BME280;4874;43.568;27.824;2022-07-24T04:47:46;98814.03;;;25.70;97.32
9672;BME280;4874;43.568;27.824;2022-07-24T04:50:13;98832.53;;;25.85;88.16
9672;BME280;4874;43.568;27.824;2022-07-24T04:52:40;98833.72;;;26.05;85.78
9672;BME280;4874;43.568;27.824;2022-07-24T04:55:08;98832.03;;;25.88;88.13
9672;BME280;4874;43.568;27.824;2022-07-24T04:57:35;98821.84;;;26.11;83.79
9672;BME280;4874;43.568;27.824;2022-07-24T05:00:05;98824.22;;;26.08;79.53
9672;BME280;4874;43.568;27.824;2022-07-24T05:02:33;98815.44;;;26.17;71.42
9672;BME280;4874;43.568;27.824;2022-07-24T05:05:00;98825.56;;;26.22;69.20
9672;BME280;4874;43.568;27.824;2022-07-24T05:07:27;98827.94;;;26.35;66.91
9672;BME280;4874;43.568;27.824;2022-07-24T05:09:54;98831.91;;;26.27;74.84
9672;BME280;4874;43.568;27.824;2022-07-24T05:12:20;98832.97;;;26.43;68.06
9672;BME280;4874;43.568;27.824;2022-07-24T05:14:47;98829.69;;;26.41;67.89
9672;BME280;4874;43.568;27.824;2022-07-24T05:17:14;98827.19;;;26.56;66.42
9672;BME280;4874;43.568;27.824;2022-07-24T05:19:41;98836.34;;;26.67;67.85
9672;BME280;4874;43.568;27.824;2022-07-24T05:22:08;98836.09;;;26.68;73.02
9672;BME280;4874;43.568;27.824;2022-07-24T05:24:34;98831.44;;;26.85;62.44
9672;BME280;4874;43.568;27.824;2022-07-24T05:27:01;98832.53;;;26.84;62.89
9672;BME280;4874;43.568;27.824;2022-07-24T05:29:28;98834.09;;;26.80;66.65
9672;BME280;4874;43.568;27.824;2022-07-24T05:31:54;98827.53;;;26.98;61.62
9672;BME280;4874;43.568;27.824;2022-07-24T05:34:22;98811.91;;;26.93;61.10
9672;BME280;4874;43.568;27.824;2022-07-24T05:36:50;98823.09;;;27.13;58.99
9672;BME280;4874;43.568;27.824;2022-07-24T05:39:16;98813.31;;;27.17;60.86
9672;BME280;4874;43.568;27.824;2022-07-24T05:41:43;98820.22;;;27.46;58.12
9672;BME280;4874;43.568;27.824;2022-07-24T05:44:10;98821.78;;;27.64;54.69
9672;BME280;4874;43.568;27.824;2022-07-24T05:46:36;98821.78;;;27.91;54.90
9672;BME280;4874;43.568;27.824;2022-07-24T05:49:03;98811.44;;;28.24;54.38
9672;BME280;4874;43.568;27.824;2022-07-24T05:51:30;98811.66;;;28.54;53.29
9672;BME280;4874;43.568;27.824;2022-07-24T05:53:57;98813.16;;;28.72;53.19
9672;BME280;4874;43.568;27.824;2022-07-24T05:56:24;98815.50;;;29.05;51.67
9672;BME280;4874;43.568;27.824;2022-07-24T05:58:51;98816.53;;;28.89;49.64
9672;BME280;4874;43.568;27.824;2022-07-24T06:01:17;98810.84;;;29.06;48.75
9672;BME280;4874;43.568;27.824;2022-07-24T06:03:44;98812.03;;;29.20;48.09
9672;BME280;4874;43.568;27.824;2022-07-24T06:06:11;98811.84;;;29.41;46.87
9672;BME280;4874;43.568;27.824;2022-07-24T06:08:38;98812.50;;;29.73;47.45
9672;BME280;4874;43.568;27.824;2022-07-24T06:11:05;98810.78;;;29.52;46.04
9672;BME280;4874;43.568;27.824;2022-07-24T06:13:32;98820.88;;;29.52;46.14
9672;BME280;4874;43.568;27.824;2022-07-24T06:15:58;98820.16;;;30.01;47.56
9672;BME280;4874;43.568;27.824;2022-07-24T06:18:25;98818.53;;;29.75;46.65
9672;BME280;4874;43.568;27.824;2022-07-24T06:20:52;98805.13;;;29.74;45.60
9672;BME280;4874;43.568;27.824;2022-07-24T06:23:18;98815.81;;;29.90;47.07
9672;BME280;4874;43.568;27.824;2022-07-24T06:25:47;98821.56;;;30.04;47.36
9672;BME280;4874;43.568;27.824;2022-07-24T06:28:13;98813.84;;;30.81;45.23
9672;BME280;4874;43.568;27.824;2022-07-24T06:30:40;98803.22;;;30.30;45.30
9672;BME280;4874;43.568;27.824;2022-07-24T06:33:07;98808.41;;;30.36;45.52
9672;BME280;4874;43.568;27.824;2022-07-24T06:35:33;98803.78;;;30.37;45.13
9672;BME280;4874;43.568;27.824;2022-07-24T06:38:00;98811.88;;;30.97;45.21
9672;BME280;4874;43.568;27.824;2022-07-24T06:40:27;98796.28;;;30.82;45.58
9672;BME280;4874;43.568;27.824;2022-07-24T06:42:54;98802.84;;;30.96;43.69
9672;BME280;4874;43.568;27.824;2022-07-24T06:45:21;98801.69;;;31.13;43.05
9672;BME280;4874;43.568;27.824;2022-07-24T06:47:48;98800.44;;;30.65;42.27
9672;BME280;4874;43.568;27.824;2022-07-24T06:50:15;98776.84;;;30.79;42.53
9672;BME280;4874;43.568;27.824;2022-07-24T06:52:42;98783.69;;;30.76;43.05
9672;BME280;4874;43.568;27.824;2022-07-24T06:55:09;98789.06;;;31.11;42.14
9672;BME280;4874;43.568;27.824;2022-07-24T06:57:36;98773.00;;;30.85;42.74
9672;BME280;4874;43.568;27.824;2022-07-24T07:00:05;98789.47;;;30.80;42.75
9672;BME280;4874;43.568;27.824;2022-07-24T07:02:33;98782.03;;;30.90;42.15
9672;BME280;4874;43.568;27.824;2022-07-24T07:05:00;98772.53;;;31.22;42.84
9672;BME280;4874;43.568;27.824;2022-07-24T07:07:27;98775.34;;;31.06;43.03
9672;BME280;4874;43.568;27.824;2022-07-24T07:09:53;98774.00;;;31.09;43.36
9672;BME280;4874;43.568;27.824;2022-07-24T07:12:20;98784.44;;;31.02;42.45
9672;BME280;4874;43.568;27.824;2022-07-24T07:14:47;98784.28;;;31.32;42.60
9672;BME280;4874;43.568;27.824;2022-07-24T07:17:13;98780.47;;;31.38;42.61
9672;BME280;4874;43.568;27.824;2022-07-24T07:19:42;98777.00;;;31.61;42.73
9672;BME280;4874;43.568;27.824;2022-07-24T07:22:10;98779.38;;;31.34;42.29
9672;BME280;4874;43.568;27.824;2022-07-24T07:24:37;98771.31;;;31.48;42.47
9672;BME280;4874;43.568;27.824;2022-07-24T07:27:04;98778.03;;;32.09;42.02
9672;BME280;4874;43.568;27.824;2022-07-24T07:29:30;98761.75;;;31.84;41.73
9672;BME280;4874;43.568;27.824;2022-07-24T07:31:57;98770.34;;;31.72;41.79
9672;BME280;4874;43.568;27.824;2022-07-24T07:34:24;98766.41;;;31.45;42.53
9672;BME280;4874;43.568;27.824;2022-07-24T07:36:51;98761.00;;;32.12;43.06
9672;BME280;4874;43.568;27.824;2022-07-24T07:39:17;98768.31;;;31.93;42.59
9672;BME280;4874;43.568;27.824;2022-07-24T07:41:44;98768.06;;;31.89;42.08
9672;BME280;4874;43.568;27.824;2022-07-24T07:44:11;98763.84;;;32.02;42.84
9672;BME280;4874;43.568;27.824;2022-07-24T07:46:38;98762.75;;;32.27;42.06
9672;BME280;4874;43.568;27.824;2022-07-24T07:49:06;98760.16;;;32.11;43.08
9672;BME280;4874;43.568;27.824;2022-07-24T07:51:33;98764.44;;;32.28;42.62
9672;BME280;4874;43.568;27.824;2022-07-24T07:54:00;98770.38;;;32.06;42.76
9672;BME280;4874;43.568;27.824;2022-07-24T07:56:27;98757.66;;;31.76;42.84
9672;BME280;4874;43.568;27.824;2022-07-24T07:58:57;98766.88;;;31.95;42.24
9672;BME280;4874;43.568;27.824;2022-07-24T08:01:26;98755.97;;;31.85;42.56
9672;BME280;4874;43.568;27.824;2022-07-24T08:03:53;98758.72;;;31.85;43.00
9672;BME280;4874;43.568;27.824;2022-07-24T08:06:20;98749.03;;;32.55;42.88
9672;BME280;4874;43.568;27.824;2022-07-24T08:08:47;98759.47;;;32.24;43.09
9672;BME280;4874;43.568;27.824;2022-07-24T08:11:13;98751.25;;;32.24;44.42
9672;BME280;4874;43.568;27.824;2022-07-24T08:13:40;98750.06;;;32.07;44.17
9672;BME280;4874;43.568;27.824;2022-07-24T08:16:07;98746.97;;;32.42;43.90
9672;BME280;4874;43.568;27.824;2022-07-24T08:18:34;98747.69;;;32.24;43.48
9672;BME280;4874;43.568;27.824;2022-07-24T08:21:00;98745.56;;;32.16;44.66
9672;BME280;4874;43.568;27.824;2022-07-24T08:23:27;98748.19;;;32.31;44.98
9672;BME280;4874;43.568;27.824;2022-07-24T08:25:54;98744.66;;;32.26;45.79
9672;BME280;4874;43.568;27.824;2022-07-24T08:28:21;98740.94;;;32.40;45.77
9672;BME280;4874;43.568;27.824;2022-07-24T08:30:50;98750.09;;;32.02;46.49
9672;BME280;4874;43.568;27.824;2022-07-24T08:33:17;98745.13;;;32.33;46.10
9672;BME280;4874;43.568;27.824;2022-07-24T08:35:44;98741.72;;;32.46;47.10
9672;BME280;4874;43.568;27.824;2022-07-24T08:38:11;98740.00;;;32.21;47.52
9672;BME280;4874;43.568;27.824;2022-07-24T08:40:38;98758.00;;;32.08;47.55
9672;BME280;4874;43.568;27.824;2022-07-24T08:43:07;98758.16;;;32.51;47.59
9672;BME280;4874;43.568;27.824;2022-07-24T08:45:39;98756.63;;;32.40;48.15
9672;BME280;4874;43.568;27.824;2022-07-24T08:48:08;98748.53;;;32.77;48.16
9672;BME280;4874;43.568;27.824;2022-07-24T08:50:38;98736.97;;;33.22;47.26
9672;BME280;4874;43.568;27.824;2022-07-24T08:53:05;98754.34;;;33.36;47.37
9672;BME280;4874;43.568;27.824;2022-07-24T08:55:32;98743.44;;;33.50;46.52
9672;BME280;4874;43.568;27.824;2022-07-24T08:58:00;98749.66;;;33.18;47.61
9672;BME280;4874;43.568;27.824;2022-07-24T09:00:28;98757.25;;;33.26;48.41
9672;BME280;4874;43.568;27.824;2022-07-24T09:02:55;98747.75;;;33.18;47.85
9672;BME280;4874;43.568;27.824;2022-07-24T09:05:23;98732.38;;;32.94;49.12
9672;BME280;4874;43.568;27.824;2022-07-24T09:08:08;98740.63;;;32.94;48.17
9672;BME280;4874;43.568;27.824;2022-07-24T09:10:36;98741.66;;;33.40;47.02
9672;BME280;4874;43.568;27.824;2022-07-24T09:13:14;98738.75;;;33.13;46.52
9672;BME280;4874;43.568;27.824;2022-07-24T09:15:46;98720.50;;;32.51;48.72
9672;BME280;4874;43.568;27.824;2022-07-24T09:18:34;98706.22;;;32.73;47.17
9672;BME280;4874;43.568;27.824;2022-07-24T09:21:15;98744.78;;;33.33;46.85
9672;BME280;4874;43.568;27.824;2022-07-24T09:23:42;98739.31;;;32.86;46.52
9672;BME280;4874;43.568;27.824;2022-07-24T09:26:09;98740.63;;;32.70;47.19
9672;BME280;4874;43.568;27.824;2022-07-24T09:28:47;98740.63;;;32.94;46.13
9672;BME280;4874;43.568;27.824;2022-07-24T09:31:14;98730.63;;;33.40;45.47
9672;BME280;4874;43.568;27.824;2022-07-24T09:33:41;98737.13;;;33.68;46.19
9672;BME280;4874;43.568;27.824;2022-07-24T09:36:16;98717.09;;;32.59;45.99
9672;BME280;4874;43.568;27.824;2022-07-24T09:38:47;98731.34;;;32.85;45.58
9672;BME280;4874;43.568;27.824;2022-07-24T09:41:19;98738.06;;;33.21;45.34
9672;BME280;4874;43.568;27.824;2022-07-24T09:43:56;98732.63;;;33.16;46.07
9672;BME280;4874;43.568;27.824;2022-07-24T09:46:24;98735.22;;;33.07;45.72
9672;BME280;4874;43.568;27.824;2022-07-24T09:48:54;98731.94;;;33.48;46.57
9672;BME280;4874;43.568;27.824;2022-07-24T09:51:27;98733.50;;;33.54;44.78
9672;BME280;4874;43.568;27.824;2022-07-24T09:53:56;98724.47;;;33.48;44.90
9672;BME280;4874;43.568;27.824;2022-07-24T09:56:23;98718.78;;;32.55;45.45
9672;BME280;4874;43.568;27.824;2022-07-24T09:58:52;98724.91;;;33.18;44.14
9672;BME280;4874;43.568;27.824;2022-07-24T10:01:22;98723.41;;;33.25;43.46
9672;BME280;4874;43.568;27.824;2022-07-24T10:03:51;98708.41;;;33.55;44.55
9672;BME280;4874;43.568;27.824;2022-07-24T10:06:21;98712.19;;;33.78;44.85
9672;BME280;4874;43.568;27.824;2022-07-24T10:08:50;98699.13;;;33.51;43.32
9672;BME280;4874;43.568;27.824;2022-07-24T10:11:18;98690.28;;;33.86;43.53
9672;BME280;4874;43.568;27.824;2022-07-24T10:13:45;98685.66;;;34.00;42.98
9672;BME280;4874;43.568;27.824;2022-07-24T10:31:52;98688.16;;;33.27;43.10
9672;BME280;4874;43.568;27.824;2022-07-24T10:36:54;98692.31;;;32.83;43.36
9672;BME280;4874;43.568;27.824;2022-07-24T10:42:32;98700.34;;;33.77;43.54
9672;BME280;4874;43.568;27.824;2022-07-24T10:45:18;98702.97;;;33.50;42.65
9672;BME280;4874;43.568;27.824;2022-07-24T10:47:46;98708.50;;;32.89;43.21
9672;BME280;4874;43.568;27.824;2022-07-24T10:50:13;98701.50;;;33.39;44.20
9672;BME280;4874;43.568;27.824;2022-07-24T10:52:41;98709.16;;;33.61;43.22
9672;BME280;4874;43.568;27.824;2022-07-24T10:55:25;98698.91;;;33.98;43.19
9672;BME280;4874;43.568;27.824;2022-07-24T11:00:45;98700.34;;;33.40;43.05
9672;BME280;4874;43.568;27.824;2022-07-24T11:03:25;98697.31;;;33.60;42.56
9672;BME280;4874;43.568;27.824;2022-07-24T11:06:10;98680.75;;;33.79;42.91
9672;BME280;4874;43.568;27.824;2022-07-24T11:08:49;98683.03;;;33.21;42.47
9672;BME280;4874;43.568;27.824;2022-07-24T11:11:20;98683.78;;;33.45;42.24
9672;BME280;4874;43.568;27.824;2022-07-24T11:13:50;98699.47;;;33.26;43.19
9672;BME280;4874;43.568;27.824;2022-07-24T11:21:36;98677.72;;;33.62;43.64
9672;BME280;4874;43.568;27.824;2022-07-24T11:26:50;98678.06;;;33.74;43.88
9672;BME280;4874;43.568;27.824;2022-07-24T11:31:55;98673.22;;;33.33;43.94
9672;BME280;4874;43.568;27.824;2022-07-24T11:34:23;98674.91;;;33.29;44.11
9672;BME280;4874;43.568;27.824;2022-07-24T11:36:51;98680.44;;;33.48;44.23
9672;BME280;4874;43.568;27.824;2022-07-24T11:39:25;98676.06;;;33.47;44.65
9672;BME280;4874;43.568;27.824;2022-07-24T11:41:54;98675.66;;;32.98;44.50
9672;BME280;4874;43.568;27.824;2022-07-24T11:44:30;98657.44;;;33.02;44.85
9672;BME280;4874;43.568;27.824;2022-07-24T11:47:06;98669.19;;;32.65;45.95
9672;BME280;4874;43.568;27.824;2022-07-24T11:49:44;98668.19;;;32.33;44.83
9672;BME280;4874;43.568;27.824;2022-07-24T11:54:49;98654.59;;;33.25;45.24
9672;BME280;4874;43.568;27.824;2022-07-24T11:57:29;98657.09;;;32.85;44.82
9672;BME280;4874;43.568;27.824;2022-07-24T12:00:24;98653.16;;;32.72;45.58
9672;BME280;4874;43.568;27.824;2022-07-24T12:02:58;98659.25;;;32.93;45.54
9672;BME280;4874;43.568;27.824;2022-07-24T12:05:27;98655.38;;;33.12;45.85
9672;BME280;4874;43.568;27.824;2022-07-24T12:07:55;98643.59;;;33.07;46.39
9672;BME280;4874;43.568;27.824;2022-07-24T12:10:23;98657.22;;;33.17;48.10
9672;BME280;4874;43.568;27.824;2022-07-24T12:12:51;98650.44;;;33.28;48.94
9672;BME280;4874;43.568;27.824;2022-07-24T12:15:21;98643.59;;;33.07;49.44
9672;BME280;4874;43.568;27.824;2022-07-24T12:17:55;98645.63;;;32.12;56.14
9672;BME280;4874;43.568;27.824;2022-07-24T12:20:25;98632.56;;;31.99;55.54
9672;BME280;4874;43.568;27.824;2022-07-24T12:22:53;98647.06;;;32.28;55.49
9672;BME280;4874;43.568;27.824;2022-07-24T12:25:21;98655.56;;;32.55;54.35
9672;BME280;4874;43.568;27.824;2022-07-24T12:27:48;98640.31;;;32.20;59.24
9672;BME280;4874;43.568;27.824;2022-07-24T12:30:22;98641.19;;;32.63;57.27
9672;BME280;4874;43.568;27.824;2022-07-24T12:35:23;98629.78;;;32.51;58.80
9672;BME280;4874;43.568;27.824;2022-07-24T12:37:52;98614.56;;;31.54;58.71
9672;BME280;4874;43.568;27.824;2022-07-24T12:40:34;98627.69;;;31.91;61.11
9672;BME280;4874;43.568;27.824;2022-07-24T12:43:09;98635.31;;;32.70;59.96
9672;BME280;4874;43.568;27.824;2022-07-24T12:45:37;98630.34;;;31.72;58.93
9672;BME280;4874;43.568;27.824;2022-07-24T12:48:10;98626.03;;;32.18;59.21
9672;BME280;4874;43.568;27.824;2022-07-24T12:50:38;98627.78;;;32.09;60.70
9672;BME280;4874;43.568;27.824;2022-07-24T12:53:21;98625.69;;;32.01;62.52
9672;BME280;4874;43.568;27.824;2022-07-24T12:56:20;98614.59;;;31.49;63.17
9672;BME280;4874;43.568;27.824;2022-07-24T12:59:00;98613.53;;;31.50;62.28
9672;BME280;4874;43.568;27.824;2022-07-24T13:01:48;98607.88;;;31.32;62.96
9672;BME280;4874;43.568;27.824;2022-07-24T13:04:17;98616.47;;;31.59;63.44
9672;BME280;4874;43.568;27.824;2022-07-24T13:06:45;98623.47;;;31.41;63.11
9672;BME280;4874;43.568;27.824;2022-07-24T13:09:14;98616.22;;;31.55;63.87
9672;BME280;4874;43.568;27.824;2022-07-24T13:11:42;98609.47;;;31.71;63.77
9672;BME280;4874;43.568;27.824;2022-07-24T13:14:10;98616.16;;;31.60;64.14
9672;BME280;4874;43.568;27.824;2022-07-24T13:16:39;98611.69;;;31.69;61.51
9672;BME280;4874;43.568;27.824;2022-07-24T13:19:07;98597.16;;;31.35;63.82
9672;BME280;4874;43.568;27.824;2022-07-24T13:21:35;98593.22;;;31.13;63.99
9672;BME280;4874;43.568;27.824;2022-07-24T13:24:07;98593.16;;;30.74;62.68
9672;BME280;4874;43.568;27.824;2022-07-24T13:26:35;98587.19;;;30.67;62.50
9672;BME280;4874;43.568;27.824;2022-07-24T13:29:03;98575.06;;;30.83;61.71
9672;BME280;4874;43.568;27.824;2022-07-24T13:31:30;98587.63;;;30.89;61.18
9672;BME280;4874;43.568;27.824;2022-07-24T13:33:58;98566.09;;;30.62;64.24
9672;BME280;4874;43.568;27.824;2022-07-24T13:36:25;98574.19;;;30.39;65.61
9672;BME280;4874;43.568;27.824;2022-07-24T13:38:52;98570.28;;;30.50;66.69
9672;BME280;4874;43.568;27.824;2022-07-24T13:41:19;98572.69;;;30.56;66.82
9672;BME280;4874;43.568;27.824;2022-07-24T13:43:49;98554.41;;;30.47;68.14
9672;BME280;4874;43.568;27.824;2022-07-24T13:46:17;98551.78;;;30.27;70.08
9672;BME280;4874;43.568;27.824;2022-07-24T13:48:47;98542.13;;;30.34;71.51
9672;BME280;4874;43.568;27.824;2022-07-24T13:51:19;98544.59;;;30.41;73.34
9672;BME280;4874;43.568;27.824;2022-07-24T13:53:46;98545.47;;;30.26;73.70